EPGDEKRN

Guest
Details From EPGD - LECH WALESA
To EKRN - Bornholm Ronne
Flight Number -
Tags generated
Created
Modified
Stats Distance 135 nm / 250 km
Max Altitude 6,800 ft / 2,073 m
Waypoints 3
Social Downloads 0
Likes 0
Share VATSIM

Download

Looking for another format? Having issues loading an existing format? Contact us
Advertisement - Login to hide

Notes

Basic altitude profile: - Ascent Rate: 2500ft/min - Ascent Speed: 250kts - Cruise Altitude: 35000ft - Cruise Speed: 420kts - Descent Rate: 1500ft/min - Descent Speed: 250kts Options: - Use NATs: yes - Use PACOTS: yes - Use low airways: yes - Use high airways: yes

Route

EPGD GORPI EKRN

ID Type Via Altitude Latitude Longitude Leg Dist Tot Dist Heading (true) Name
O EPGD APT - 0 ft / 0 m 54.37617˚ 18.47188˚ - 0 nm - LECH WALESA
GORPI FIX - 6,800 ft / 2,073 m 54.91667˚ 15.65500˚ 103 nm 103 nm 289° / 287° -
O EKRN APT - 0 ft / 0 m 55.06327˚ 14.75956˚ 32 nm 135 nm 286° / 286° Bornholm Ronne

Altitude Profile

Advertisement - Login to hide

EPGD

Details ICAO EPGD (GDN)
Name LECH WALESA
Region Poland
Timezone Europe/Warsaw (UTC+1.0)
Stats Elevation 489 ft / 149 m (AMSL)
Location 54.376167° 18.471884°
Runways 1
Magnetic Variation 5.449° E

METAR

EPGD 110430Z 13010KT 6000 -SN OVC005 M01/M01 Q0985 R11/590195

Decode

TAF

TAF TAF EPGD 102330Z 1100/1124 15012KT 9999 SCT010 BKN020 TEMPO 1100/1107 16015G28KT 1300 SN SNRA BKN005 TEMPO 1107/1110 4000 RADZ BR BKN009 BECMG 1110/1112 20010KT BKN020

Decode

Departure Runways

ID Width Length Bearing (true) Bearing (mag) Surface Threshold Offset Overrun Length
11 148 ft / 45 m 9,158 ft / 2,791 m 112.96° 107.51° Asphalt 0 ft / 0 m 0 ft / 0 m
29 148 ft / 45 m 9,158 ft / 2,791 m 293.00° 287.55° Asphalt 0 ft / 0 m 0 ft / 0 m

EKRN

Details ICAO EKRN (RNN)
Name Bornholm Ronne
Region Denmark / Faroe Islands
Timezone Europe/Copenhagen (UTC+1.0)
Stats Elevation 52 ft / 16 m (AMSL)
Location 55.063265° 14.759558°
Runways 1
Magnetic Variation 4.381° E

METAR

EKRN 110420Z AUTO 09009KT 9999NDV OVC025/// 01/M02 Q0983

Decode

TAF

Not found

Destination Runways

ID Width Length Bearing (true) Bearing (mag) Surface Threshold Offset Overrun Length
11 164 ft / 50 m 6,551 ft / 1,997 m 113.76° 109.38° Asphalt 0 ft / 0 m 197 ft / 60 m
29 164 ft / 50 m 6,551 ft / 1,997 m 293.78° 289.40° Asphalt 0 ft / 0 m 0 ft / 0 m

Approach Navaids

Runway Type Ident Frequency Range Bearing (true) Bearing (mag) Slope Elevation
11 Localiser IAR 109.35 MHz 18 nm / 33 km 113.78° 109.40° - 52 ft / 16 m (AMSL)
11 Glidescope IAR 109.35 MHz 10 nm / 19 km 113.77° 109.39° 3.00° 52 ft / 16 m (AMSL)
11 DME IAR 109.35 MHz 18 nm / 33 km - - - 52 ft / 16 m (AMSL)
29 Localiser IRE 110.30 MHz 18 nm / 33 km 295.54° 291.16° - 52 ft / 16 m (AMSL)
29 Glidescope IRE 110.30 MHz 10 nm / 19 km 293.77° 289.39° 3.00° 52 ft / 16 m (AMSL)
29 DME IRE 110.30 MHz 18 nm / 33 km - - - 55 ft / 17 m (AMSL)

Popular Alternatives